SWA3590 KSNA-KLAS
Flight info
| Callsign | SWA3590 |
|---|---|
| Flight time | N/A |
| Altitude | 29000 |
| Route | FINZZ3 MISEN RNDRZ3 |
| Aircraft | B737/M-SDE2E3FGHIRWXY/LB1 |
Departure
| Time | 2026-05-04 00:32 |
|---|---|
| Airport | John Wayne Orange County International Airport (KSNA) |
Arrival
| Time | N/A |
|---|---|
| Airport | Harry Reid International Airport (KLAS) |
| Time | Latitude | Longitude | Altitude | Speed | Heading |
|---|---|---|---|---|---|
| 2026-05-03 23:41 | 33.67567 | -117.86454 | 50 ft | 0 kts | 118° |
| 2026-05-04 00:17 | 33.67567 | -117.86455 | 50 ft | 1 kts | 118° |
| 2026-05-04 00:17 | 33.67578 | -117.86481 | 47 ft | 4 kts | 112° |
| 2026-05-04 00:18 | 33.67586 | -117.86512 | 49 ft | 4 kts | 96° |
| 2026-05-04 00:18 | 33.67583 | -117.86539 | 47 ft | 4 kts | 38° |
| 2026-05-04 00:18 | 33.67575 | -117.86545 | 48 ft | 0 kts | 27° |
| 2026-05-04 00:26 | 33.67578 | -117.86543 | 50 ft | 2 kts | 28° |
| 2026-05-04 00:26 | 33.67615 | -117.86519 | 48 ft | 10 kts | 27° |
| 2026-05-04 00:27 | 33.67712 | -117.86459 | 50 ft | 19 kts | 27° |
| 2026-05-04 00:27 | 33.67833 | -117.86382 | 48 ft | 19 kts | 28° |
| 2026-05-04 00:27 | 33.67950 | -117.86307 | 49 ft | 19 kts | 28° |
| 2026-05-04 00:27 | 33.68059 | -117.86298 | 49 ft | 17 kts | 313° |
| 2026-05-04 00:28 | 33.68111 | -117.86413 | 51 ft | 6 kts | 298° |
| 2026-05-04 00:28 | 33.68115 | -117.86422 | 50 ft | 0 kts | 298° |
| 2026-05-04 00:31 | 33.68116 | -117.86424 | 50 ft | 2 kts | 298° |
| 2026-05-04 00:31 | 33.68139 | -117.86496 | 50 ft | 12 kts | 265° |
| 2026-05-04 00:31 | 33.68079 | -117.86561 | 51 ft | 12 kts | 207° |
| 2026-05-04 00:31 | 33.67850 | -117.86708 | 54 ft | 80 kts | 208° |
| 2026-05-04 00:32 | 33.67096 | -117.87189 | 76 ft | 160 kts | 209° |
| 2026-05-04 00:32 | 33.66084 | -117.87840 | 1021 ft | 165 kts | 211° |
| 2026-05-04 00:32 | 33.65107 | -117.88477 | 2307 ft | 164 kts | 210° |
| 2026-05-04 00:32 | 33.63940 | -117.89016 | 2937 ft | 200 kts | 193° |
| 2026-05-04 00:33 | 33.62431 | -117.89269 | 3458 ft | 231 kts | 188° |
| 2026-05-04 00:33 | 33.59079 | -117.89697 | 4908 ft | 256 kts | 187° |